createdAt,value
2023-09-01T00:02:25.552Z,2.30
2023-09-01T00:04:52.743Z,2.28
2023-09-01T00:07:19.932Z,2.60
2023-09-01T00:09:47.118Z,2.40
2023-09-01T00:12:14.306Z,2.28
2023-09-01T00:14:41.563Z,2.35
2023-09-01T00:17:09.991Z,2.58
2023-09-01T00:19:37.467Z,2.40
2023-09-01T00:22:04.830Z,2.30
2023-09-01T00:24:33.203Z,2.28
2023-09-01T00:27:00.757Z,2.25
2023-09-01T00:29:27.974Z,2.17
2023-09-01T00:31:55.207Z,2.00
2023-09-01T00:34:22.403Z,2.47
2023-09-01T00:36:51.541Z,2.40
2023-09-01T00:39:18.819Z,2.45
2023-09-01T00:41:46.008Z,2.17
2023-09-01T00:44:16.180Z,2.20
2023-09-01T00:46:47.818Z,2.10
2023-09-01T00:49:16.785Z,2.30
2023-09-01T00:51:47.940Z,2.17
2023-09-01T00:54:15.901Z,2.33
2023-09-01T00:56:43.894Z,2.25
2023-09-01T00:59:11.292Z,2.20
2023-09-01T01:01:38.819Z,2.13
2023-09-01T01:04:09.170Z,2.30
2023-09-01T01:06:55.384Z,2.40
2023-09-01T01:11:52.657Z,2.05
2023-09-01T01:14:36.895Z,2.17
2023-09-01T01:17:06.726Z,2.25
2023-09-01T01:19:36.830Z,2.38
2023-09-01T01:22:06.709Z,2.40
2023-09-01T01:24:34.905Z,1.90
2023-09-01T01:27:02.238Z,2.15
2023-09-01T01:29:29.506Z,2.30
2023-09-01T01:31:58.726Z,2.00
2023-09-01T01:34:31.250Z,2.20
2023-09-01T01:37:07.833Z,2.40
2023-09-01T01:39:36.345Z,2.13
2023-09-01T01:42:05.263Z,2.25
2023-09-01T01:44:34.886Z,1.90
2023-09-01T01:47:02.538Z,2.15
2023-09-01T01:49:30.268Z,2.00
2023-09-01T01:51:57.495Z,1.88
2023-09-01T01:54:24.741Z,1.90
2023-09-01T01:56:52.061Z,2.35
2023-09-01T01:59:19.324Z,2.03
2023-09-01T02:01:46.625Z,1.92
2023-09-01T02:04:13.913Z,2.25
2023-09-01T02:06:41.175Z,2.50
2023-09-01T02:09:11.554Z,2.10
2023-09-01T02:11:39.551Z,2.05
2023-09-01T02:14:07.381Z,2.10
2023-09-01T02:16:34.619Z,2.22
2023-09-01T02:19:01.808Z,1.90
2023-09-01T02:21:29.072Z,1.98
2023-09-01T02:23:56.460Z,1.65
2023-09-01T02:26:24.357Z,1.83
2023-09-01T02:28:51.967Z,2.33
2023-09-01T02:31:19.647Z,2.08
2023-09-01T02:33:46.987Z,1.60
2023-09-01T02:36:34.039Z,1.70
2023-09-01T02:39:01.980Z,1.73
2023-09-01T02:41:29.512Z,1.70
2023-09-01T02:43:56.826Z,1.90
2023-09-01T02:46:24.153Z,1.60
2023-09-01T02:48:52.241Z,1.65
2023-09-01T02:51:19.746Z,1.60
2023-09-01T02:53:48.842Z,1.58
2023-09-01T02:56:16.103Z,1.77
2023-09-01T02:58:43.330Z,1.63
2023-09-01T03:01:11.684Z,1.52
2023-09-01T03:03:39.847Z,1.40
2023-09-01T03:06:09.650Z,1.92
2023-09-01T03:08:37.896Z,1.77
2023-09-01T03:11:05.375Z,1.35
2023-09-01T03:13:33.503Z,1.35
2023-09-01T03:16:01.006Z,1.73
2023-09-01T03:18:28.318Z,1.77
2023-09-01T03:20:56.497Z,1.90
2023-09-01T03:23:24.433Z,1.48
2023-09-01T03:25:56.387Z,1.30
2023-09-01T03:28:23.769Z,1.70
2023-09-01T03:30:51.088Z,1.75
2023-09-01T03:33:18.759Z,1.48
2023-09-01T03:35:46.058Z,2.00
2023-09-01T03:38:13.802Z,1.27
2023-09-01T03:40:41.300Z,1.50
2023-09-01T03:43:09.053Z,1.35
2023-09-01T03:45:36.356Z,1.70
2023-09-01T03:48:03.825Z,1.80
2023-09-01T03:50:31.140Z,1.52
2023-09-01T03:52:58.435Z,1.45
2023-09-01T03:55:25.654Z,1.70
2023-09-01T03:57:52.968Z,1.55
2023-09-01T04:00:21.418Z,1.55
2023-09-01T04:02:48.760Z,1.30
2023-09-01T04:05:16.117Z,1.42
2023-09-01T04:07:43.378Z,1.27
2023-09-01T04:10:10.924Z,1.45
2023-09-01T04:12:38.229Z,1.60
2023-09-01T04:15:07.833Z,1.20
2023-09-01T04:17:35.224Z,1.55
2023-09-01T04:20:03.061Z,1.13
2023-09-01T04:22:30.398Z,1.40
2023-09-01T04:24:57.759Z,1.63
2023-09-01T04:27:25.133Z,1.50
2023-09-01T04:30:07.732Z,1.77
2023-09-01T04:32:36.976Z,1.70
2023-09-01T04:35:04.378Z,1.60
2023-09-01T04:37:31.651Z,1.58
2023-09-01T04:39:58.912Z,1.42
2023-09-01T04:42:26.266Z,1.58
2023-09-01T04:44:53.648Z,1.75
2023-09-01T04:47:20.897Z,1.55
2023-09-01T04:49:48.128Z,2.20
2023-09-01T04:52:15.428Z,1.40
2023-09-01T04:54:42.715Z,1.98
2023-09-01T04:57:09.924Z,1.80
2023-09-01T04:59:37.197Z,1.70
2023-09-01T05:02:04.465Z,1.60
2023-09-01T05:04:31.709Z,1.65
2023-09-01T05:06:58.976Z,1.23
2023-09-01T05:09:26.424Z,1.48
2023-09-01T05:11:53.678Z,1.77
2023-09-01T05:14:20.992Z,1.48
2023-09-01T05:16:48.271Z,1.20
2023-09-01T05:19:15.823Z,1.38
2023-09-01T05:21:44.606Z,1.23
2023-09-01T05:24:11.886Z,1.77
2023-09-01T05:26:39.225Z,1.55
2023-09-01T05:29:06.568Z,1.40
2023-09-01T05:31:33.829Z,1.27
2023-09-01T05:34:01.126Z,1.70
2023-09-01T05:36:29.273Z,1.42
2023-09-01T05:38:56.603Z,1.50
2023-09-01T05:41:23.845Z,1.85
2023-09-01T05:43:51.165Z,1.80
2023-09-01T05:46:18.450Z,1.92
2023-09-01T05:48:45.714Z,1.58
2023-09-01T05:51:13.038Z,1.80
2023-09-01T05:53:40.309Z,3.00
2023-09-01T05:56:07.574Z,7.95
2023-09-01T05:58:36.597Z,8.77
2023-09-01T06:01:04.836Z,8.50
2023-09-01T06:03:32.203Z,6.93
2023-09-01T06:05:59.651Z,5.75
2023-09-01T06:08:26.932Z,5.80
2023-09-01T06:11:03.886Z,6.00
2023-09-01T06:13:31.131Z,5.40
2023-09-01T06:15:58.339Z,5.75
2023-09-01T06:18:26.089Z,5.65
2023-09-01T06:20:53.468Z,5.93
2023-09-01T06:23:20.784Z,5.22
2023-09-01T06:25:48.175Z,4.85
2023-09-01T06:28:15.780Z,5.65
2023-09-01T06:30:43.891Z,5.47
2023-09-01T06:33:11.209Z,6.47
2023-09-01T06:35:38.582Z,6.82
2023-09-01T06:38:08.730Z,7.60
2023-09-01T06:40:36.021Z,6.45
2023-09-01T06:43:04.849Z,6.13
2023-09-01T06:45:32.218Z,5.90
2023-09-01T06:47:59.528Z,6.63
2023-09-01T06:50:26.893Z,5.95
2023-09-01T06:52:54.150Z,5.78
2023-09-01T06:55:21.389Z,6.40
2023-09-01T06:57:48.723Z,6.18
2023-09-01T07:00:16.346Z,6.53
2023-09-01T07:02:43.614Z,6.50
2023-09-01T07:05:10.926Z,5.72
2023-09-01T07:07:38.270Z,6.47
2023-09-01T07:10:05.736Z,5.78
2023-09-01T07:12:33.034Z,6.70
2023-09-01T07:15:00.416Z,6.55
2023-09-01T07:17:27.599Z,6.07
2023-09-01T07:19:54.877Z,6.60
2023-09-01T07:22:22.135Z,5.53
2023-09-01T07:24:49.352Z,4.97
2023-09-01T07:27:16.601Z,5.72
2023-09-01T07:29:48.229Z,5.95
2023-09-01T07:32:15.448Z,5.18
2023-09-01T07:34:42.949Z,5.75
2023-09-01T07:37:10.825Z,6.10
2023-09-01T07:39:38.078Z,5.57
2023-09-01T07:42:05.478Z,5.20
2023-09-01T07:44:32.840Z,5.38
2023-09-01T07:47:00.042Z,5.90
2023-09-01T07:49:27.254Z,5.07
2023-09-01T07:51:54.514Z,5.35
2023-09-01T07:54:21.760Z,5.20
2023-09-01T07:56:48.989Z,4.65
2023-09-01T07:59:16.182Z,4.40
2023-09-01T08:01:43.766Z,4.57
2023-09-01T08:04:11.108Z,4.45
2023-09-01T08:06:38.436Z,4.80
2023-09-01T08:09:06.302Z,4.82
2023-09-01T08:11:33.596Z,4.40
2023-09-01T08:14:00.972Z,4.32
2023-09-01T08:16:28.266Z,3.85
2023-09-01T08:19:00.145Z,4.45
2023-09-01T08:21:27.496Z,4.22
2023-09-01T08:23:54.735Z,4.53
2023-09-01T08:26:21.996Z,3.83
2023-09-01T08:28:49.218Z,3.90
2023-09-01T08:31:16.550Z,4.60
2023-09-01T08:33:43.786Z,3.97
2023-09-01T08:36:11.174Z,3.72
2023-09-01T08:38:40.360Z,3.50
2023-09-01T08:41:09.530Z,4.35
2023-09-01T08:43:39.550Z,3.85
2023-09-01T08:48:37.776Z,3.55
2023-09-01T08:51:06.402Z,3.97
2023-09-01T08:53:34.177Z,3.60
2023-09-01T08:56:01.429Z,3.35
2023-09-01T08:58:28.651Z,3.13
2023-09-01T09:00:56.767Z,3.45
2023-09-01T09:03:24.079Z,2.80
2023-09-01T09:05:51.445Z,3.35
2023-09-01T09:08:19.293Z,3.00
2023-09-01T09:10:49.758Z,3.17
2023-09-01T09:13:24.721Z,3.08
2023-09-01T09:16:07.031Z,2.90
2023-09-01T09:18:34.376Z,3.08
2023-09-01T09:21:01.800Z,3.20
2023-09-01T09:23:45.663Z,2.90
2023-09-01T09:26:15.745Z,3.03
2023-09-01T09:28:44.401Z,2.85
2023-09-01T09:31:11.649Z,2.70
2023-09-01T09:33:39.786Z,2.58
2023-09-01T09:36:07.214Z,3.35
2023-09-01T09:38:44.201Z,2.70
2023-09-01T09:41:11.542Z,3.22
2023-09-01T09:43:45.454Z,2.75
2023-09-01T09:46:13.218Z,2.80
2023-09-01T09:48:40.926Z,2.60
2023-09-01T09:51:09.128Z,2.80
2023-09-01T09:53:39.139Z,2.67
2023-09-01T09:56:31.763Z,2.50
2023-09-01T09:59:00.668Z,2.92
2023-09-01T10:01:29.341Z,2.70
2023-09-01T10:03:59.358Z,2.50
2023-09-01T10:06:26.673Z,2.92
2023-09-01T10:08:53.954Z,2.70
2023-09-01T10:11:21.417Z,2.47
2023-09-01T10:13:49.270Z,2.83
2023-09-01T10:16:16.814Z,2.28
2023-09-01T10:18:45.195Z,2.50
2023-09-01T10:21:14.352Z,2.58
2023-09-01T10:23:42.580Z,2.50
2023-09-01T10:26:15.198Z,2.60
2023-09-01T10:28:55.519Z,2.35
2023-09-01T10:31:24.951Z,2.60
2023-09-01T10:34:11.152Z,2.13
2023-09-01T10:36:39.535Z,2.75
2023-09-01T10:39:23.141Z,2.50
2023-09-01T10:41:53.636Z,2.30
2023-09-01T10:44:22.541Z,2.40
2023-09-01T10:46:50.615Z,2.42
2023-09-01T10:49:18.028Z,2.30
2023-09-01T10:51:47.513Z,2.35
2023-09-01T10:54:17.769Z,2.17
2023-09-01T10:56:58.459Z,2.20
2023-09-01T10:59:32.985Z,1.92
2023-09-01T11:02:19.730Z,2.30
2023-09-01T11:04:47.421Z,2.53
2023-09-01T11:07:15.069Z,2.60
2023-09-01T11:09:43.719Z,2.33
2023-09-01T11:12:12.057Z,2.60
2023-09-01T11:14:40.612Z,3.10
2023-09-01T11:17:07.877Z,2.78
2023-09-01T11:19:48.368Z,2.70
2023-09-01T11:22:15.746Z,2.70
2023-09-01T11:24:46.709Z,2.88
2023-09-01T11:27:14.818Z,2.60
2023-09-01T11:29:42.113Z,2.83
2023-09-01T11:32:09.398Z,2.88
2023-09-01T11:34:40.388Z,6.47
2023-09-01T11:37:07.618Z,10.40
2023-09-01T11:39:34.864Z,10.27
2023-09-01T11:42:02.309Z,11.27
2023-09-01T11:44:29.591Z,11.77
2023-09-01T11:46:56.942Z,12.38
2023-09-01T11:49:24.303Z,10.73
2023-09-01T11:51:51.545Z,10.82
2023-09-01T11:54:19.014Z,10.95
2023-09-01T11:56:46.421Z,9.70
2023-09-01T11:59:21.540Z,9.68
2023-09-01T12:01:48.878Z,8.88
2023-09-01T12:04:16.205Z,10.43
2023-09-01T12:06:47.663Z,9.70
2023-09-01T12:09:16.940Z,9.02
2023-09-01T12:11:57.337Z,9.43
2023-09-01T12:14:25.861Z,8.73
2023-09-01T12:16:56.409Z,8.88
2023-09-01T12:19:24.893Z,8.60
2023-09-01T12:21:52.767Z,8.50
2023-09-01T12:24:19.998Z,7.40
2023-09-01T12:26:48.396Z,8.02
2023-09-01T12:29:15.785Z,8.20
2023-09-01T12:31:44.356Z,7.95
2023-09-01T12:34:11.990Z,7.45
2023-09-01T12:36:39.257Z,7.53
2023-09-01T12:39:06.711Z,7.82
2023-09-01T12:41:34.230Z,8.20
2023-09-01T12:44:01.706Z,6.25
2023-09-01T12:46:29.726Z,7.15
2023-09-01T12:48:57.178Z,6.47
2023-09-01T12:51:24.728Z,7.78
2023-09-01T12:53:52.355Z,6.88
2023-09-01T12:56:19.572Z,7.25
2023-09-01T12:58:46.797Z,7.03
2023-09-01T13:01:14.008Z,7.68
2023-09-01T13:03:41.437Z,7.25
2023-09-01T13:06:12.320Z,7.25
2023-09-01T13:08:39.754Z,7.68
2023-09-01T13:11:14.497Z,6.78
2023-09-01T13:13:41.930Z,7.40
2023-09-01T13:16:11.116Z,7.07
2023-09-01T13:18:40.463Z,6.45
2023-09-01T13:21:08.052Z,7.47
2023-09-01T13:23:35.544Z,6.63
2023-09-01T13:26:02.939Z,6.30
2023-09-01T13:28:33.216Z,5.95
2023-09-01T13:31:01.075Z,5.95
2023-09-01T13:33:28.430Z,6.63
2023-09-01T13:35:55.832Z,6.90
2023-09-01T13:38:23.052Z,6.25
2023-09-01T13:40:57.142Z,6.28
2023-09-01T13:43:24.473Z,6.80
2023-09-01T13:45:51.761Z,6.50
2023-09-01T13:48:19.154Z,6.40
2023-09-01T13:50:46.642Z,5.82
2023-09-01T13:53:14.485Z,6.43
2023-09-01T13:55:41.983Z,6.30
2023-09-01T13:58:09.465Z,6.00
2023-09-01T14:00:36.848Z,6.10
2023-09-01T14:03:04.625Z,6.20
2023-09-01T14:05:31.973Z,6.43
2023-09-01T14:07:59.719Z,6.13
2023-09-01T14:10:27.096Z,5.57
2023-09-01T14:12:54.522Z,5.80
2023-09-01T14:15:21.800Z,5.88
2023-09-01T14:17:49.101Z,5.90
2023-09-01T14:20:16.497Z,5.82
2023-09-01T14:22:43.720Z,5.30
2023-09-01T14:25:11.117Z,5.65
2023-09-01T14:27:38.384Z,6.45
2023-09-01T14:30:05.882Z,5.85
2023-09-01T14:32:33.198Z,5.80
2023-09-01T14:35:00.457Z,5.60
2023-09-01T14:37:27.831Z,6.28
2023-09-01T14:39:55.095Z,6.40
2023-09-01T14:42:22.394Z,6.20
2023-09-01T14:44:49.712Z,6.30
2023-09-01T14:47:17.118Z,5.93
2023-09-01T14:49:44.399Z,6.10
2023-09-01T14:52:11.759Z,5.35
2023-09-01T14:54:38.964Z,5.47
2023-09-01T14:57:06.187Z,5.97
2023-09-01T14:59:33.552Z,5.68
2023-09-01T15:02:05.305Z,5.93
2023-09-01T15:04:32.968Z,6.07
2023-09-01T15:07:00.233Z,5.82
2023-09-01T15:09:27.852Z,5.82
2023-09-01T15:11:55.124Z,5.90
2023-09-01T15:14:22.392Z,6.20
2023-09-01T15:16:49.958Z,6.35
2023-09-01T15:19:17.624Z,6.13
2023-09-01T15:21:44.935Z,6.28
2023-09-01T15:24:12.197Z,6.53
2023-09-01T15:26:39.447Z,6.47
2023-09-01T15:29:06.647Z,6.03
2023-09-01T15:31:33.895Z,11.25
2023-09-01T15:34:01.788Z,21.40
2023-09-01T15:36:29.376Z,16.75
2023-09-01T15:38:56.650Z,13.85
2023-09-01T15:41:23.953Z,13.27
2023-09-01T15:43:51.351Z,12.40
2023-09-01T15:46:18.796Z,11.82
2023-09-01T15:48:46.092Z,12.20
2023-09-01T15:51:13.945Z,11.55
2023-09-01T15:53:41.188Z,10.65
2023-09-01T15:56:08.711Z,12.10
2023-09-01T15:58:35.962Z,9.57
2023-09-01T16:01:18.591Z,9.02
2023-09-01T16:03:52.931Z,9.38
2023-09-01T16:06:21.974Z,8.55
2023-09-01T16:08:49.376Z,8.55
2023-09-01T16:11:16.624Z,8.82
2023-09-01T16:13:43.857Z,8.30
2023-09-01T16:16:11.137Z,9.40
2023-09-01T16:18:38.420Z,8.95
2023-09-01T16:21:06.161Z,7.53
2023-09-01T16:23:33.508Z,8.48
2023-09-01T16:26:00.981Z,8.77
2023-09-01T16:28:28.419Z,8.23
2023-09-01T16:30:55.700Z,8.90
2023-09-01T16:33:23.407Z,8.43
2023-09-01T16:36:01.049Z,8.48
2023-09-01T16:38:30.312Z,7.70
2023-09-01T16:40:59.833Z,7.68
2023-09-01T16:43:27.743Z,7.72
2023-09-01T16:45:55.407Z,8.23
2023-09-01T16:48:23.949Z,7.85
2023-09-01T16:50:51.423Z,6.80
2023-09-01T16:53:19.083Z,6.72
2023-09-01T16:55:46.823Z,7.00
2023-09-01T16:58:17.681Z,6.30
2023-09-01T17:00:45.299Z,7.82
2023-09-01T17:03:12.837Z,9.07
2023-09-01T17:05:40.544Z,10.60
2023-09-01T17:08:07.913Z,11.02
2023-09-01T17:10:35.729Z,10.77
2023-09-01T17:13:03.209Z,11.07
2023-09-01T17:15:31.000Z,10.73
2023-09-01T17:17:58.393Z,11.73
2023-09-01T17:20:28.648Z,10.80
2023-09-01T17:22:57.731Z,9.77
2023-09-01T17:25:25.126Z,9.90
2023-09-01T17:27:52.424Z,9.55
2023-09-01T17:30:19.836Z,9.82
2023-09-01T17:32:47.201Z,9.48
2023-09-01T17:35:14.571Z,9.20
2023-09-01T17:37:41.882Z,10.27
2023-09-01T17:40:09.384Z,9.13
2023-09-01T17:42:36.696Z,9.38
2023-09-01T17:45:04.209Z,8.05
2023-09-01T17:47:31.555Z,7.50
2023-09-01T17:49:58.797Z,7.32
2023-09-01T17:52:26.100Z,7.10
2023-09-01T17:54:53.367Z,6.10
2023-09-01T17:57:22.640Z,5.80
2023-09-01T17:59:50.220Z,5.65
2023-09-01T18:02:17.555Z,5.47
2023-09-01T18:04:45.166Z,4.32
2023-09-01T18:07:12.601Z,4.82
2023-09-01T18:09:39.851Z,4.38
2023-09-01T18:12:07.248Z,4.57
2023-09-01T18:14:35.388Z,3.95
2023-09-01T18:17:04.540Z,3.58
2023-09-01T18:19:32.964Z,3.97
2023-09-01T18:22:03.345Z,3.20
2023-09-01T18:24:33.715Z,3.65
2023-09-01T18:27:01.654Z,3.72
2023-09-01T18:29:28.927Z,2.92
2023-09-01T18:31:56.976Z,2.92
2023-09-01T18:34:25.689Z,2.95
2023-09-01T18:36:55.716Z,3.75
2023-09-01T18:39:26.765Z,2.80
2023-09-01T18:41:55.402Z,3.20
2023-09-01T18:44:23.181Z,3.88
2023-09-01T18:46:50.453Z,4.50
2023-09-01T18:49:19.631Z,5.10
2023-09-01T18:51:58.568Z,4.32
2023-09-01T18:54:29.286Z,4.47
2023-09-01T18:57:04.385Z,4.03
2023-09-01T18:59:31.943Z,3.85
2023-09-01T19:02:00.296Z,3.58
2023-09-01T19:04:27.799Z,3.50
2023-09-01T19:06:55.068Z,3.35
2023-09-01T19:09:24.282Z,3.75
2023-09-01T19:11:51.572Z,3.65
2023-09-01T19:14:20.928Z,3.22
2023-09-01T19:16:49.679Z,4.00
2023-09-01T19:19:19.098Z,3.92
2023-09-01T19:21:46.321Z,3.70
2023-09-01T19:24:13.695Z,3.85
2023-09-01T19:26:40.964Z,4.05
2023-09-01T19:29:15.450Z,3.92
2023-09-01T19:31:46.222Z,4.72
2023-09-01T19:34:16.870Z,4.18
2023-09-01T19:36:45.286Z,5.10
2023-09-01T19:39:12.590Z,4.35
2023-09-01T19:41:40.169Z,4.55
2023-09-01T19:44:12.527Z,4.22
2023-09-01T19:46:40.373Z,4.68
2023-09-01T19:49:15.830Z,4.47
2023-09-01T19:54:25.142Z,4.60
2023-09-01T19:56:54.660Z,4.43
2023-09-01T19:59:22.072Z,4.70
2023-09-01T20:01:51.068Z,4.88
2023-09-01T20:04:18.954Z,4.97
2023-09-01T20:06:46.310Z,4.93
2023-09-01T20:09:14.671Z,5.80
2023-09-01T20:11:43.566Z,5.10
2023-09-01T20:14:11.893Z,5.30
2023-09-01T20:16:41.276Z,5.82
2023-09-01T20:19:12.521Z,5.03
2023-09-01T20:21:39.810Z,5.47
2023-09-01T20:24:07.338Z,4.97
2023-09-01T20:26:34.585Z,6.05
2023-09-01T20:29:01.898Z,5.57
2023-09-01T20:31:29.229Z,5.53
2023-09-01T20:33:56.506Z,4.60
2023-09-01T20:36:24.631Z,4.72
2023-09-01T20:38:51.963Z,4.80
2023-09-01T20:41:19.173Z,5.30
2023-09-01T20:43:46.625Z,5.30
2023-09-01T20:46:13.915Z,5.32
2023-09-01T20:48:41.251Z,5.32
2023-09-01T20:51:08.581Z,5.18
2023-09-01T20:53:35.964Z,4.13
2023-09-01T20:56:04.260Z,5.10
2023-09-01T20:58:31.964Z,4.78
2023-09-01T21:00:59.264Z,4.40
2023-09-01T21:03:26.890Z,5.18
2023-09-01T21:05:54.200Z,4.30
2023-09-01T21:08:21.477Z,4.20
2023-09-01T21:10:48.863Z,4.45
2023-09-01T21:13:16.682Z,3.40
2023-09-01T21:15:44.114Z,3.25
2023-09-01T21:18:11.477Z,3.38
2023-09-01T21:20:38.798Z,3.20
2023-09-01T21:23:06.043Z,3.33
2023-09-01T21:25:35.650Z,2.95
2023-09-01T21:28:03.356Z,3.45
2023-09-01T21:30:30.747Z,3.30
2023-09-01T21:32:58.088Z,3.85
2023-09-01T21:35:25.367Z,3.53
2023-09-01T21:37:52.634Z,3.78
2023-09-01T21:40:19.942Z,4.00
2023-09-01T21:42:47.959Z,3.80
2023-09-01T21:45:15.370Z,4.25
2023-09-01T21:47:42.667Z,4.03
2023-09-01T21:50:10.094Z,4.20
2023-09-01T21:52:37.757Z,4.30
2023-09-01T21:55:05.128Z,4.40
2023-09-01T21:57:32.980Z,4.30
2023-09-01T22:00:00.265Z,4.97
2023-09-01T22:02:27.917Z,4.32
2023-09-01T22:04:55.276Z,4.55
2023-09-01T22:07:22.710Z,4.88
2023-09-01T22:09:50.285Z,4.40
2023-09-01T22:12:20.069Z,4.90
2023-09-01T22:14:48.331Z,4.90
2023-09-01T22:17:15.713Z,4.90
2023-09-01T22:19:43.397Z,4.65
2023-09-01T22:22:10.704Z,4.65
2023-09-01T22:24:37.963Z,4.55
2023-09-01T22:27:05.480Z,4.53
2023-09-01T22:29:32.721Z,4.78
2023-09-01T22:32:00.064Z,4.18
2023-09-01T22:34:27.522Z,4.00
2023-09-01T22:36:54.781Z,4.05
2023-09-01T22:39:22.104Z,3.75
2023-09-01T22:41:49.373Z,4.18
2023-09-01T22:44:16.615Z,3.42
2023-09-01T22:46:44.051Z,3.50
2023-09-01T22:49:11.517Z,3.50
2023-09-01T22:51:38.932Z,3.63
2023-09-01T22:54:06.196Z,3.22
2023-09-01T22:56:33.604Z,3.00
2023-09-01T22:59:00.866Z,3.00
2023-09-01T23:01:28.230Z,3.05
2023-09-01T23:03:55.468Z,2.88
2023-09-01T23:06:22.730Z,3.20
2023-09-01T23:08:50.077Z,2.85
2023-09-01T23:11:20.337Z,2.67
2023-09-01T23:13:47.779Z,2.47
2023-09-01T23:16:15.188Z,2.58
2023-09-01T23:18:42.728Z,2.40
2023-09-01T23:21:10.013Z,2.55
2023-09-01T23:23:37.275Z,2.58
2023-09-01T23:26:04.541Z,2.53
2023-09-01T23:28:31.788Z,2.80
2023-09-01T23:30:59.168Z,2.40
2023-09-01T23:33:26.583Z,2.20
2023-09-01T23:35:53.876Z,2.25
2023-09-01T23:38:21.142Z,2.00
2023-09-01T23:40:48.366Z,2.20
2023-09-01T23:43:15.809Z,2.22
2023-09-01T23:45:43.441Z,2.63
2023-09-01T23:48:10.845Z,2.30
2023-09-01T23:50:38.163Z,2.58
2023-09-01T23:53:05.425Z,2.42
2023-09-01T23:55:32.701Z,2.33
2023-09-01T23:58:00.049Z,2.22
